KMOX

Morris Municipal - Charlie Schmidt Field Airport

Morris, Minnesota, USA
METAR KMOX 211255Z AUTO 00000KT 10SM CLR M23/M26 A3047 RMK AO2
Observed Flight Rules
Feb-21 @ 12:55 UTC (16 minutes ago) Visual Flight Rules
Wind Visibility Clouds
Calm 10 miles
  • Clear skies
Temperatures Readings
Current -23°C / -9°F
Dewpoint -26°C / -15°F
Humidity 77%
Altimeter 30.47" Hg
Pressure 1032 hPa
Elevation 344
METAR KMOX 211255Z AUTO 00000KT 10SM CLR M23/M26 A3047 RMK AO2
Observed Flight Rules
Feb-21 @ 12:55 UTC
(16 minutes ago)
VFR
Wind Visibility
Calm 10 miles
Clouds
  • Clear skies
Temperature Dewpoint
-23°C / -9°F -26°C / -15°F
Humidity Altimeter Pressure
77% 30.47" Hg 1032 hPa